Time;durP1;ratioP1;P1;durP2;ratioP2;P2;SDS_P1;SDS_P2;PMS_P1;PMS_P2;Temp;Humidity;BMP_temperature;BMP_pressure;BME280_temperature;BME280_humidity;BME280_pressure;Samples;Min_cycle;Max_cycle;Signal;HPM_P1;HPM_P2
2023/06/03 00:01:04;;;;;;;;;;;;;;;18.06;56.41;99965.50;5058509;28;19916;-63
2023/06/03 00:03:31;;;;;;;;;;;;;;;18.01;56.54;99959.56;5058692;28;19917;-63
2023/06/03 00:05:57;;;;;;;;;;;;;;;18.00;56.73;99963.22;5071565;28;19961;-63
2023/06/03 00:08:22;;;;;;;;;;;;;;;18.00;56.96;99960.53;5071645;28;19916;-63
2023/06/03 00:10:47;;;;;;;;;;;;;;;17.93;56.90;99969.94;5069244;28;19924;-63
2023/06/03 00:13:13;;;;;;;;;;;;;;;17.90;56.95;99963.88;5065134;28;20463;-63
2023/06/03 00:15:38;;;;;;;;;;;;;;;17.88;57.74;99972.06;5071817;28;19923;-63
2023/06/03 00:18:04;;;;;;;;;;;;;;;17.85;57.30;99977.63;5066321;28;19920;-63
2023/06/03 00:20:33;;;;;;;;;;;;;;;17.82;57.11;99972.47;5064751;28;19969;-63
2023/06/03 00:22:58;;;;;;;;;;;;;;;17.79;57.64;99967.25;5062584;28;19920;-63
2023/06/03 00:25:23;;;;;;;;;;;;;;;17.79;57.03;99972.63;5060527;28;19912;-63
2023/06/03 00:27:49;;;;;;;;;;;;;;;17.80;57.95;99969.00;5057192;28;19932;-63
2023/06/03 00:30:14;;;;;;;;;;;;;;;17.82;57.96;99967.06;5071881;28;20414;-63
2023/06/03 00:32:40;;;;;;;;;;;;;;;17.82;58.14;99972.47;5071952;28;19977;-63
2023/06/03 00:35:05;;;;;;;;;;;;;;;17.70;57.67;99967.84;5061738;28;19908;-63
2023/06/03 00:37:31;;;;;;;;;;;;;;;17.75;57.86;99959.47;5071597;28;20257;-62
2023/06/03 00:39:56;;;;;;;;;;;;;;;17.73;57.96;99962.25;5070285;28;19913;-63
2023/06/03 00:42:21;;;;;;;;;;;;;;;17.71;58.37;99964.16;5070530;28;19916;-63
2023/06/03 00:44:46;;;;;;;;;;;;;;;17.66;58.20;99954.69;5064910;28;20272;-62
2023/06/03 00:47:13;;;;;;;;;;;;;;;17.66;58.21;99954.69;5066593;28;20011;-63
2023/06/03 00:49:38;;;;;;;;;;;;;;;17.67;58.46;99957.28;5050912;28;19924;-64
2023/06/03 00:52:05;;;;;;;;;;;;;;;17.67;57.88;99959.97;5067640;28;19923;-63
2023/06/03 00:54:30;;;;;;;;;;;;;;;17.66;58.66;99960.06;5070764;28;19916;-64
2023/06/03 00:56:56;;;;;;;;;;;;;;;17.65;58.04;99959.19;5070835;28;19920;-63
2023/06/03 00:59:21;;;;;;;;;;;;;;;17.55;58.73;99951.75;5060859;28;19923;-63
2023/06/03 01:01:47;;;;;;;;;;;;;;;17.53;58.88;99954.56;5059437;28;19913;-63
2023/06/03 01:04:16;;;;;;;;;;;;;;;17.52;59.43;99942.06;5070172;28;19908;-63
2023/06/03 01:07:01;;;;;;;;;;;;;;;17.47;59.16;99946.00;5063678;28;19920;-63
2023/06/03 01:09:37;;;;;;;;;;;;;;;17.44;59.45;99943.47;5053425;28;19916;-63
2023/06/03 01:12:08;;;;;;;;;;;;;;;17.39;59.54;99953.66;5063128;28;19923;-62
2023/06/03 01:14:43;;;;;;;;;;;;;;;17.34;59.89;99948.56;5071213;28;19923;-63
2023/06/03 01:17:10;;;;;;;;;;;;;;;17.31;59.73;99948.75;5064578;28;19971;-63
2023/06/03 01:19:49;;;;;;;;;;;;;;;17.27;60.34;99959.75;5051266;28;19909;-63
2023/06/03 01:22:18;;;;;;;;;;;;;;;17.22;60.28;99957.34;5059631;28;19916;-63
2023/06/03 01:24:44;;;;;;;;;;;;;;;17.16;60.47;99959.56;5060759;28;19935;-63
2023/06/03 01:27:10;;;;;;;;;;;;;;;17.16;60.09;99954.16;5052500;28;19917;-63
2023/06/03 01:29:40;;;;;;;;;;;;;;;17.18;60.27;99966.59;5071145;28;20343;-63
2023/06/03 01:32:07;;;;;;;;;;;;;;;17.12;60.90;99958.88;5070987;28;19948;-63
2023/06/03 01:34:32;;;;;;;;;;;;;;;17.04;61.43;99958.47;5067239;28;19916;-63
2023/06/03 01:36:58;;;;;;;;;;;;;;;17.07;61.10;99955.59;5070206;28;20426;-62
2023/06/03 01:39:24;;;;;;;;;;;;;;;17.04;61.00;99963.84;5051222;28;20003;-64
2023/06/03 01:41:51;;;;;;;;;;;;;;;17.07;60.69;99958.28;5065361;28;19916;-63
2023/06/03 01:44:16;;;;;;;;;;;;;;;17.06;61.68;99959.25;5065677;28;20246;-63
2023/06/03 01:46:41;;;;;;;;;;;;;;;17.03;61.93;99954.91;5069798;28;19912;-63
2023/06/03 01:49:07;;;;;;;;;;;;;;;16.98;61.67;99958.84;5070259;28;19912;-63
2023/06/03 01:51:33;;;;;;;;;;;;;;;16.96;61.73;99955.38;5063314;28;20291;-63
2023/06/03 01:53:58;;;;;;;;;;;;;;;16.94;61.82;99962.66;5050631;28;20048;-63
2023/06/03 01:56:24;;;;;;;;;;;;;;;16.91;62.18;99958.34;5062440;28;19916;-63
2023/06/03 01:58:49;;;;;;;;;;;;;;;16.88;62.35;99949.59;5067438;28;19916;-63
2023/06/03 02:01:14;;;;;;;;;;;;;;;16.92;62.05;99956.50;5069961;28;19908;-63
2023/06/03 02:03:40;;;;;;;;;;;;;;;16.88;62.42;99954.97;5066584;28;19913;-63
2023/06/03 02:06:05;;;;;;;;;;;;;;;16.84;62.67;99956.09;5064520;28;19986;-63
2023/06/03 02:08:31;;;;;;;;;;;;;;;16.82;62.63;99960.69;5068974;28;19923;-63
2023/06/03 02:10:56;;;;;;;;;;;;;;;16.75;62.57;99953.97;5068373;28;19909;-63
2023/06/03 02:13:21;;;;;;;;;;;;;;;16.80;62.39;99962.63;5067974;28;20372;-63
2023/06/03 02:15:47;;;;;;;;;;;;;;;16.78;62.39;99961.84;5050071;28;20003;-63
2023/06/03 02:18:12;;;;;;;;;;;;;;;16.75;62.17;99970.91;5069110;28;19947;-63
2023/06/03 02:20:37;;;;;;;;;;;;;;;16.71;63.04;99968.50;5066495;28;19924;-63
2023/06/03 02:23:02;;;;;;;;;;;;;;;16.71;62.98;99960.44;5058143;28;20280;-62
2023/06/03 02:25:28;;;;;;;;;;;;;;;16.62;63.63;99958.31;5050403;28;19919;-63
2023/06/03 02:27:54;;;;;;;;;;;;;;;16.63;62.93;99958.22;5059824;28;19912;-63
2023/06/03 02:30:20;;;;;;;;;;;;;;;16.62;63.32;99963.69;5067396;28;19920;-63
2023/06/03 02:32:45;;;;;;;;;;;;;;;16.59;62.79;99963.88;5049927;28;19967;-63
2023/06/03 02:35:11;;;;;;;;;;;;;;;16.56;63.74;99967.59;5060354;28;19924;-62
2023/06/03 02:37:36;;;;;;;;;;;;;;;16.48;63.77;99966.28;5059740;28;20362;-63
2023/06/03 02:40:01;;;;;;;;;;;;;;;16.46;64.02;99957.44;5066918;28;19912;-63
2023/06/03 02:42:27;;;;;;;;;;;;;;;16.48;64.06;99966.28;5069643;28;19991;-62
2023/06/03 02:44:52;;;;;;;;;;;;;;;16.50;63.54;99964.38;5068115;28;19918;-62
2023/06/03 02:47:17;;;;;;;;;;;;;;;16.51;64.60;99963.41;5072836;28;19962;-62
2023/06/03 02:49:44;;;;;;;;;;;;;;;16.45;64.36;99963.75;5061322;28;20295;-62
2023/06/03 02:52:09;;;;;;;;;;;;;;;16.46;64.13;99973.56;5053903;28;19966;-62
2023/06/03 02:54:35;;;;;;;;;;;;;;;16.52;64.17;99965.16;5073677;28;20334;-62
2023/06/03 02:57:00;;;;;;;;;;;;;;;16.51;64.36;99974.16;5073079;28;19912;-63
2023/06/03 02:59:25;;;;;;;;;;;;;;;16.45;64.02;99974.50;5068344;28;19916;-63
2023/06/03 03:01:50;;;;;;;;;;;;;;;16.47;64.37;99975.31;5067383;28;20291;-62
2023/06/03 03:04:16;;;;;;;;;;;;;;;16.44;64.76;99975.47;5072278;28;19984;-62
2023/06/03 03:06:41;;;;;;;;;;;;;;;16.48;64.11;99971.66;5071257;28;19924;-63
2023/06/03 03:09:07;;;;;;;;;;;;;;;16.46;64.92;99979.81;5058307;28;19964;-63
2023/06/03 03:11:32;;;;;;;;;;;;;;;16.40;64.58;99985.50;5061926;28;19962;-63
2023/06/03 03:13:58;;;;;;;;;;;;;;;16.39;64.62;99977.53;5071602;28;19913;-63
2023/06/03 03:16:23;;;;;;;;;;;;;;;16.44;64.89;99975.47;5071567;28;19946;-63
2023/06/03 03:18:49;;;;;;;;;;;;;;;16.43;64.59;99979.06;5057844;28;19943;-63
2023/06/03 03:21:14;;;;;;;;;;;;;;;16.35;65.00;99975.97;5052646;28;20003;-63
2023/06/03 03:23:40;;;;;;;;;;;;;;;16.33;64.93;99983.22;5054969;28;19973;-64
2023/06/03 03:26:07;;;;;;;;;;;;;;;16.26;64.30;99971.13;5066175;28;19962;-63
2023/06/03 03:28:32;;;;;;;;;;;;;;;16.26;65.60;99982.72;5060807;28;19919;-64
2023/06/03 03:30:57;;;;;;;;;;;;;;;16.24;65.43;99981.06;5071331;28;19916;-63
2023/06/03 03:33:23;;;;;;;;;;;;;;;16.23;65.85;99982.88;5071483;28;19916;-63
2023/06/03 03:35:49;;;;;;;;;;;;;;;16.17;65.76;99980.56;5059450;28;20730;-63
2023/06/03 03:38:14;;;;;;;;;;;;;;;16.21;65.77;99986.63;5052492;28;19916;-63
2023/06/03 03:40:40;;;;;;;;;;;;;;;16.12;66.49;99979.06;5068050;28;20449;-64
2023/06/03 03:43:12;;;;;;;;;;;;;;;16.15;66.86;99979.78;5069187;28;20008;-64
2023/06/03 03:45:37;;;;;;;;;;;;;;;16.15;67.05;99985.13;5057099;28;20528;-64
2023/06/03 03:48:06;;;;;;;;;;;;;;;16.07;67.54;99973.97;5051632;28;19915;-63
2023/06/03 03:50:45;;;;;;;;;;;;;;;16.11;67.35;99982.72;5067985;28;19989;-62
2023/06/03 03:53:27;;;;;;;;;;;;;;;16.07;67.53;99981.13;5064089;28;20353;-63
2023/06/03 03:55:53;;;;;;;;;;;;;;;16.11;66.50;99982.72;5058212;28;19912;-63
2023/06/03 03:58:23;;;;;;;;;;;;;;;16.14;67.53;99988.78;5072649;28;19916;-62
2023/06/03 04:00:50;;;;;;;;;;;;;;;16.14;67.12;99987.91;5072590;28;19912;-63
2023/06/03 04:03:17;;;;;;;;;;;;;;;16.15;67.76;99979.78;5071883;28;19916;-62
2023/06/03 04:05:43;;;;;;;;;;;;;;;16.16;67.55;99991.38;5072155;28;19916;-63
2023/06/03 04:08:10;;;;;;;;;;;;;;;16.12;68.38;99984.44;5063564;28;19952;-63
2023/06/03 04:10:35;;;;;;;;;;;;;;;16.11;67.79;99990.75;5072697;28;19931;-62
2023/06/03 04:13:03;;;;;;;;;;;;;;;16.14;67.93;99993.28;5072559;28;19920;-62
2023/06/03 04:15:32;;;;;;;;;;;;;;;16.12;68.09;99981.75;5065343;28;20081;-64
2023/06/03 04:17:57;;;;;;;;;;;;;;;16.11;68.13;99982.72;5058323;28;19978;-63
2023/06/03 04:20:42;;;;;;;;;;;;;;;16.14;68.46;99980.72;5062391;28;19912;-64
2023/06/03 04:23:12;;;;;;;;;;;;;;;16.12;68.34;99990.69;5072301;28;19991;-63
2023/06/03 04:25:40;;;;;;;;;;;;;;;16.10;68.73;99981.84;5066283;28;19975;-63
2023/06/03 04:28:06;;;;;;;;;;;;;;;16.14;68.34;99987.91;5052012;28;19916;-63
2023/06/03 04:30:31;;;;;;;;;;;;;;;16.24;68.98;99992.69;5054693;28;20304;-63
2023/06/03 04:32:56;;;;;;;;;;;;;;;16.27;68.52;99994.31;5051698;28;19921;-63
2023/06/03 04:35:23;;;;;;;;;;;;;;;16.28;68.63;100001.41;5067270;28;20335;-63
2023/06/03 04:37:48;;;;;;;;;;;;;;;16.24;69.23;99991.81;5071884;28;19975;-63
2023/06/03 04:40:13;;;;;;;;;;;;;;;16.24;68.50;99995.38;5071774;28;19989;-63
2023/06/03 04:42:40;;;;;;;;;;;;;;;16.34;68.71;99988.50;5071852;28;19916;-63
2023/06/03 04:45:06;;;;;;;;;;;;;;;16.35;69.30;99975.97;5066485;28;20009;-64
2023/06/03 04:47:32;;;;;;;;;;;;;;;16.40;69.58;99985.50;5053169;28;20647;-63
2023/06/03 04:49:58;;;;;;;;;;;;;;;16.46;68.10;99984.28;5057332;28;20012;-63
2023/06/03 04:52:23;;;;;;;;;;;;;;;16.39;68.25;99989.13;5052402;28;19923;-63
2023/06/03 04:54:48;;;;;;;;;;;;;;;16.49;67.89;99986.84;5065072;28;20343;-63
2023/06/03 04:57:14;;;;;;;;;;;;;;;16.48;67.03;99985.97;5071596;28;20445;-63
2023/06/03 04:59:40;;;;;;;;;;;;;;;16.52;67.75;99990.19;5070705;28;19921;-63
2023/06/03 05:02:08;;;;;;;;;;;;;;;16.60;67.37;99992.44;5057338;28;19912;-63
2023/06/03 05:04:34;;;;;;;;;;;;;;;16.66;67.05;99986.72;5055073;28;19909;-63
2023/06/03 05:07:00;;;;;;;;;;;;;;;16.72;66.80;99981.00;5065463;28;19927;-63
2023/06/03 05:09:25;;;;;;;;;;;;;;;16.88;67.16;99981.84;5070751;28;19948;-64
2023/06/03 05:11:51;;;;;;;;;;;;;;;16.93;66.24;99987.81;5070540;28;19920;-64
2023/06/03 05:14:16;;;;;;;;;;;;;;;17.07;65.94;99995.91;5071890;28;19912;-63
2023/06/03 05:16:42;;;;;;;;;;;;;;;17.16;66.68;99991.81;5053674;28;19913;-63
2023/06/03 05:19:07;;;;;;;;;;;;;;;17.16;65.79;99999.88;5051359;28;19913;-64
2023/06/03 05:21:32;;;;;;;;;;;;;;;17.26;65.91;99996.56;5060619;28;19912;-64
2023/06/03 05:23:57;;;;;;;;;;;;;;;17.41;65.09;99992.94;5067935;28;19909;-64
2023/06/03 05:26:23;;;;;;;;;;;;;;;17.48;64.72;99994.31;5051064;28;20320;-63
2023/06/03 05:28:48;;;;;;;;;;;;;;;17.61;65.40;99995.28;5050937;28;19908;-63
2023/06/03 05:31:14;;;;;;;;;;;;;;;17.74;65.34;99984.66;5063357;28;19922;-64
2023/06/03 05:33:40;;;;;;;;;;;;;;;17.80;64.53;99995.91;5070891;28;20026;-63
2023/06/03 05:36:05;;;;;;;;;;;;;;;17.80;63.65;99990.50;5069974;28;19919;-63
2023/06/03 05:38:31;;;;;;;;;;;;;;;17.87;63.69;99996.38;5070779;28;19951;-64
2023/06/03 05:40:57;;;;;;;;;;;;;;;17.81;64.07;99994.06;5070741;28;20013;-64
2023/06/03 05:43:25;;;;;;;;;;;;;;;17.92;63.06;99995.09;5070353;28;20374;-64
2023/06/03 05:45:51;;;;;;;;;;;;;;;18.00;62.92;99990.13;5069567;28;19939;-64
2023/06/03 05:48:16;;;;;;;;;;;;;;;18.12;62.32;99986.66;5070639;28;19912;-64
2023/06/03 05:50:51;;;;;;;;;;;;;;;18.24;62.47;99995.75;5064440;28;19919;-64
2023/06/03 05:53:21;;;;;;;;;;;;;;;18.32;63.00;99994.31;5050659;28;20363;-64
2023/06/03 05:55:47;;;;;;;;;;;;;;;18.52;62.75;99993.06;5066575;28;20003;-64
2023/06/03 05:58:12;;;;;;;;;;;;;;;18.59;62.37;100002.47;5060256;28;20015;-65
2023/06/03 06:00:38;;;;;;;;;;;;;;;18.54;62.45;99998.34;5070596;28;20276;-64
2023/06/03 06:03:03;;;;;;;;;;;;;;;18.56;61.22;100001.81;5070528;28;19908;-64
2023/06/03 06:05:28;;;;;;;;;;;;;;;18.65;61.43;99995.81;5070310;28;20372;-64
2023/06/03 06:07:53;;;;;;;;;;;;;;;18.67;60.37;99996.56;5063345;28;19912;-64
2023/06/03 06:10:19;;;;;;;;;;;;;;;18.75;61.09;100003.19;5070295;28;19923;-64
2023/06/03 06:12:44;;;;;;;;;;;;;;;18.76;61.70;99994.16;5069961;28;19957;-65
2023/06/03 06:15:09;;;;;;;;;;;;;;;18.81;59.47;100000.09;5068278;28;19965;-65
2023/06/03 06:17:35;;;;;;;;;;;;;;;18.98;60.24;100002.53;5060155;28;20280;-65
2023/06/03 06:20:02;;;;;;;;;;;;;;;19.11;60.11;99999.88;5069208;28;19948;-63
2023/06/03 06:22:28;;;;;;;;;;;;;;;19.25;58.43;100008.75;5067479;28;19923;-63
2023/06/03 06:24:53;;;;;;;;;;;;;;;19.37;59.17;100012.47;5070109;28;19913;-66
2023/06/03 06:27:18;;;;;;;;;;;;;;;19.45;57.98;100008.28;5069995;28;20341;-64
2023/06/03 06:29:43;;;;;;;;;;;;;;;19.60;58.53;100014.47;5063989;28;20027;-67
2023/06/03 06:32:10;;;;;;;;;;;;;;;19.74;56.81;100006.25;5050096;28;19921;-65
2023/06/03 06:34:35;;;;;;;;;;;;;;;19.82;57.39;100009.28;5060166;28;20397;-68
2023/06/03 06:37:00;;;;;;;;;;;;;;;19.84;56.62;100006.47;5049928;28;20380;-68
2023/06/03 06:39:35;;;;;;;;;;;;;;;19.93;56.48;100008.53;5066303;28;19920;-65
2023/06/03 06:42:06;;;;;;;;;;;;;;;20.03;57.60;100002.34;5053596;28;19916;-66
2023/06/03 06:44:38;;;;;;;;;;;;;;;20.10;56.39;100000.94;5053190;28;19924;-66
2023/06/03 06:47:03;;;;;;;;;;;;;;;20.19;56.03;100005.72;5049892;28;19909;-66
2023/06/03 06:49:30;;;;;;;;;;;;;;;20.30;56.15;100005.81;5060609;28;20292;-67
2023/06/03 06:51:56;;;;;;;;;;;;;;;20.29;57.25;100004.09;5054980;28;20133;-67
2023/06/03 06:54:21;;;;;;;;;;;;;;;20.52;55.78;100005.97;5068156;28;19999;-67
2023/06/03 06:56:47;;;;;;;;;;;;;;;20.67;55.83;99999.41;5069301;28;20296;-67
2023/06/03 06:59:12;;;;;;;;;;;;;;;20.74;54.92;100006.09;5056828;28;20022;-67
2023/06/03 07:01:39;;;;;;;;;;;;;;;20.75;55.02;100007.84;5066452;28;19923;-67
2023/06/03 07:04:04;;;;;;;;;;;;;;;20.87;54.33;100012.31;5068681;28;20026;-68
2023/06/03 07:06:30;;;;;;;;;;;;;;;21.03;54.61;100005.81;5066272;28;19955;-68
2023/06/03 07:08:55;;;;;;;;;;;;;;;21.15;54.11;100011.16;5054735;28;19912;-69
2023/06/03 07:11:21;;;;;;;;;;;;;;;21.19;53.40;100001.81;5048728;28;19912;-67
2023/06/03 07:13:46;;;;;;;;;;;;;;;21.57;54.54;100007.84;5056612;28;19962;-68
2023/06/03 07:16:11;;;;;;;;;;;;;;;21.77;52.45;100009.91;5047735;28;19909;-67
2023/06/03 07:18:36;;;;;;;;;;;;;;;22.03;51.51;100015.97;5033582;28;19916;-68
2023/06/03 07:21:02;;;;;;;;;;;;;;;22.02;50.85;100016.97;5059312;28;19913;-68
2023/06/03 07:23:28;;;;;;;;;;;;;;;22.23;51.40;100017.94;5048404;28;19912;-68
2023/06/03 07:25:54;;;;;;;;;;;;;;;22.32;50.71;100025.34;5048472;28;19912;-68
2023/06/03 07:28:20;;;;;;;;;;;;;;;22.48;49.17;100027.66;5055315;28;19960;-67
2023/06/03 07:30:52;;;;;;;;;;;;;;;22.48;49.91;100027.66;5069115;28;19912;-67
2023/06/03 07:33:20;;;;;;;;;;;;;;;22.74;48.33;100030.00;5053458;28;19923;-68
2023/06/03 07:35:45;;;;;;;;;;;;;;;23.04;48.80;100032.03;5070835;28;20701;-68
2023/06/03 07:38:16;;;;;;;;;;;;;;;23.10;47.97;100026.09;5072530;28;19912;-68
2023/06/03 07:40:43;;;;;;;;;;;;;;;23.47;48.09;100023.88;5065341;28;19963;-69
2023/06/03 07:43:09;;;;;;;;;;;;;;;23.71;47.21;100025.34;5053842;28;19923;-67
2023/06/03 07:45:35;;;;;;;;;;;;;;;24.02;47.31;100026.31;5063919;28;19916;-68
2023/06/03 07:48:02;;;;;;;;;;;;;;;24.34;46.41;100027.03;5063356;28;19999;-68
2023/06/03 07:50:27;;;;;;;;;;;;;;;24.53;45.76;100032.53;5071548;28;20368;-67
2023/06/03 07:53:00;;;;;;;;;;;;;;;24.53;45.36;100032.53;5072545;28;19912;-69
2023/06/03 07:55:26;;;;;;;;;;;;;;;24.70;45.56;100034.63;5065904;28;19917;-68
2023/06/03 07:57:51;;;;;;;;;;;;;;;25.02;43.84;100035.31;5053039;28;20019;-69
2023/06/03 08:00:17;;;;;;;;;;;;;;;25.22;43.77;100042.47;5053730;28;19912;-69
2023/06/03 08:02:42;;;;;;;;;;;;;;;25.23;44.65;100038.78;5072791;28;19912;-68
2023/06/03 08:05:08;;;;;;;;;;;;;;;25.25;44.34;100042.22;5072298;28;20411;-68
2023/06/03 08:07:33;;;;;;;;;;;;;;;25.21;43.19;100048.06;5053150;28;19995;-68
2023/06/03 08:09:58;;;;;;;;;;;;;;;25.60;42.69;100038.97;5072137;28;19998;-72
2023/06/03 08:12:28;;;;;;;;;;;;;;;25.90;43.19;100049.66;5070945;28;19932;-69
2023/06/03 08:14:53;;;;;;;;;;;;;;;26.26;42.20;100050.78;5048554;28;19918;-70
2023/06/03 08:17:27;;;;;;;;;;;;;;;26.36;42.92;100051.59;5051671;28;19995;-70
2023/06/03 08:19:52;;;;;;;;;;;;;;;26.48;41.53;100055.84;5065521;28;19912;-69
2023/06/03 08:22:27;;;;;;;;;;;;;;;26.61;41.32;100051.78;5071216;28;20299;-68
2023/06/03 08:24:52;;;;;;;;;;;;;;;26.65;41.32;100058.69;5070792;28;19920;-69
2023/06/03 08:27:17;;;;;;;;;;;;;;;26.72;41.40;100053.50;5072330;28;19990;-69
2023/06/03 08:29:44;;;;;;;;;;;;;;;26.74;40.89;100051.44;5072171;28;19916;-68
2023/06/03 08:32:10;;;;;;;;;;;;;;;27.04;42.05;100053.88;5070724;28;19930;-68
2023/06/03 08:34:36;;;;;;;;;;;;;;;27.04;41.34;100048.41;5070900;28;20642;-67
2023/06/03 08:37:01;;;;;;;;;;;;;;;27.15;42.09;100056.38;5069873;28;20372;-69
2023/06/03 08:39:26;;;;;;;;;;;;;;;27.21;41.36;100053.06;5069471;28;19954;-69
2023/06/03 08:41:53;;;;;;;;;;;;;;;27.35;42.21;100051.69;5067721;28;19915;-70
2023/06/03 08:44:31;;;;;;;;;;;;;;;27.35;40.60;100055.28;5054996;28;20337;-68
2023/06/03 08:47:05;;;;;;;;;;;;;;;27.35;40.52;100047.06;5051347;28;19939;-69
2023/06/03 08:49:36;;;;;;;;;;;;;;;27.52;39.90;100057.16;5057148;28;19942;-69
2023/06/03 08:52:03;;;;;;;;;;;;;;;27.70;41.48;100055.28;5051396;28;20292;-69
2023/06/03 08:54:31;;;;;;;;;;;;;;;27.95;40.32;100051.75;5051649;28;20015;-71
2023/06/03 08:57:02;;;;;;;;;;;;;;;27.88;40.38;100050.66;5065438;28;19912;-69
2023/06/03 08:59:28;;;;;;;;;;;;;;;27.54;40.35;100051.53;5062318;28;19917;-69
2023/06/03 09:01:55;;;;;;;;;;;;;;;27.99;39.62;100046.84;5051202;28;20329;-71
2023/06/03 09:04:21;;;;;;;;;;;;;;;28.53;40.13;100045.66;5059782;28;20002;-69
2023/06/03 09:06:47;;;;;;;;;;;;;;;28.24;38.63;100045.97;5050853;28;20064;-69
2023/06/03 09:09:14;;;;;;;;;;;;;;;28.08;39.38;100046.72;5054381;28;19919;-72
2023/06/03 09:11:40;;;;;;;;;;;;;;;28.29;40.00;100047.22;5051291;28;19916;-70
2023/06/03 09:14:07;;;;;;;;;;;;;;;28.15;38.37;100042.34;5065234;28;19908;-70
2023/06/03 09:16:32;;;;;;;;;;;;;;;28.26;38.61;100047.53;5064490;28;19917;-69
2023/06/03 09:18:57;;;;;;;;;;;;;;;28.36;39.42;100048.28;5050269;28;19991;-70
2023/06/03 09:21:23;;;;;;;;;;;;;;;28.31;38.61;100047.91;5051561;28;19913;-70
2023/06/03 09:23:51;;;;;;;;;;;;;;;28.42;38.98;100053.09;5052621;28;19924;-70
2023/06/03 09:26:16;;;;;;;;;;;;;;;28.59;38.14;100039.53;5050564;28;19912;-70
2023/06/03 09:28:41;;;;;;;;;;;;;;;29.00;38.89;100044.16;5049996;28;19920;-71
2023/06/03 09:31:07;;;;;;;;;;;;;;;28.77;37.55;100048.50;5061697;28;19917;-71
2023/06/03 09:33:32;;;;;;;;;;;;;;;29.21;38.44;100042.69;5061713;28;19927;-70
2023/06/03 09:36:07;;;;;;;;;;;;;;;29.55;38.81;100037.13;5050926;28;20249;-70
2023/06/03 09:38:45;;;;;;;;;;;;;;;29.87;38.19;100036.31;5053843;28;19916;-71
2023/06/03 09:41:17;;;;;;;;;;;;;;;30.16;36.85;100032.00;5031625;28;19913;-71
2023/06/03 09:43:54;;;;;;;;;;;;;;;30.15;37.57;100038.50;5061697;28;19909;-71
2023/06/03 09:46:19;;;;;;;;;;;;;;;30.06;36.00;100033.19;5049751;28;19918;-72
2023/06/03 09:48:44;;;;;;;;;;;;;;;29.55;37.28;100032.50;5067806;28;20335;-70
2023/06/03 09:51:09;;;;;;;;;;;;;;;29.54;38.41;100038.13;5066362;28;19917;-69
2023/06/03 09:53:35;;;;;;;;;;;;;;;29.85;37.47;100039.22;5056683;28;19920;-71
2023/06/03 09:56:19;;;;;;;;;;;;;;;29.99;37.62;100038.50;5068874;28;20007;-71
2023/06/03 09:58:45;;;;;;;;;;;;;;;30.05;37.24;100032.31;5051227;28;19923;-70
2023/06/03 10:01:11;;;;;;;;;;;;;;;30.31;37.09;100032.16;5031503;28;20003;-70
2023/06/03 10:03:37;;;;;;;;;;;;;;;30.28;39.53;100038.84;5053859;28;19948;-71
2023/06/03 10:06:17;;;;;;;;;;;;;;;30.44;38.42;100038.81;5054739;28;19921;-71
2023/06/03 10:08:43;;;;;;;;;;;;;;;30.48;36.50;100029.19;5053977;28;19916;-70
2023/06/03 10:11:09;;;;;;;;;;;;;;;30.59;37.90;100028.78;5050900;28;19966;-71
2023/06/03 10:13:34;;;;;;;;;;;;;;;30.50;36.80;100027.13;5054177;28;19920;-71
2023/06/03 10:16:01;;;;;;;;;;;;;;;30.65;36.20;100028.09;5054298;28;19942;-71
2023/06/03 10:18:37;;;;;;;;;;;;;;;30.92;37.30;100027.66;5048725;28;19920;-71
2023/06/03 10:21:06;;;;;;;;;;;;;;;30.91;36.45;100021.50;5058584;28;19924;-72
2023/06/03 10:23:32;;;;;;;;;;;;;;;31.06;36.59;100025.19;5053596;28;19924;-71
2023/06/03 10:25:58;;;;;;;;;;;;;;;31.25;35.96;100019.25;5047308;28;20273;-71
2023/06/03 10:28:25;;;;;;;;;;;;;;;31.32;35.65;100021.09;5054532;28;19920;-71
2023/06/03 10:30:51;;;;;;;;;;;;;;;31.48;35.27;100011.91;5056520;28;19920;-71
2023/06/03 10:33:18;;;;;;;;;;;;;;;31.44;36.02;100013.28;5039978;28;19920;-72
2023/06/03 10:35:44;;;;;;;;;;;;;;;31.62;35.12;100006.44;5050211;28;19916;-72
2023/06/03 10:38:10;;;;;;;;;;;;;;;31.69;35.90;100009.31;5056044;28;19931;-72
2023/06/03 10:40:35;;;;;;;;;;;;;;;31.67;34.91;100012.25;5052650;28;20027;-72
2023/06/03 10:43:02;;;;;;;;;;;;;;;31.90;34.87;100021.38;5058772;28;20705;-72
2023/06/03 10:45:28;;;;;;;;;;;;;;;31.91;35.23;100016.72;5053600;28;20290;-72
2023/06/03 10:47:57;;;;;;;;;;;;;;;31.73;34.46;100022.50;5062278;28;19917;-71
2023/06/03 10:50:42;;;;;;;;;;;;;;;31.55;35.06;100012.88;5042114;28;19999;-71
2023/06/03 10:53:07;;;;;;;;;;;;;;;31.98;35.94;100003.91;5053598;28;20395;-71
2023/06/03 10:55:35;;;;;;;;;;;;;;;32.20;35.19;100003.00;5056314;28;19939;-73
2023/06/03 10:58:04;;;;;;;;;;;;;;;32.17;34.82;100008.91;5043443;28;19920;-71
2023/06/03 11:00:48;;;;;;;;;;;;;;;32.62;34.96;100008.75;5057152;28;19916;-72
2023/06/03 11:03:16;;;;;;;;;;;;;;;32.69;34.09;100003.31;5047936;28;19913;-72
2023/06/03 11:05:42;;;;;;;;;;;;;;;32.80;33.98;100006.44;5044352;28;19921;-72
2023/06/03 11:08:07;;;;;;;;;;;;;;;32.91;35.46;100010.66;5061189;28;19946;-73
2023/06/03 11:10:35;;;;;;;;;;;;;;;32.71;33.63;100007.59;5061598;28;20011;-71
2023/06/03 11:13:01;;;;;;;;;;;;;;;32.58;34.62;99996.41;5058458;28;19931;-71
2023/06/03 11:15:45;;;;;;;;;;;;;;;32.32;34.39;100000.66;5056167;28;20276;-72
2023/06/03 11:18:13;;;;;;;;;;;;;;;32.72;34.40;99998.28;5056300;28;20011;-73
2023/06/03 11:20:38;;;;;;;;;;;;;;;32.72;34.00;99994.69;5042676;28;19923;-72
2023/06/03 11:23:04;;;;;;;;;;;;;;;32.58;35.08;99995.53;5058337;28;19912;-73
2023/06/03 11:25:29;;;;;;;;;;;;;;;33.02;35.12;99993.59;5058628;28;20295;-72
2023/06/03 11:28:15;;;;;;;;;;;;;;;33.36;34.51;99991.03;5063058;28;19912;-72
2023/06/03 11:30:56;;;;;;;;;;;;;;;33.71;33.80;99992.06;5061021;28;19925;-72
2023/06/03 11:33:21;;;;;;;;;;;;;;;33.82;33.02;99986.84;5064975;28;19912;-71
2023/06/03 11:35:46;;;;;;;;;;;;;;;33.27;33.67;99993.06;5058800;28;19916;-72
2023/06/03 11:38:12;;;;;;;;;;;;;;;33.45;36.39;99977.97;5060836;28;20411;-72
2023/06/03 11:40:44;;;;;;;;;;;;;;;33.66;32.44;99981.59;5061620;28;19944;-72
2023/06/03 11:43:09;;;;;;;;;;;;;;;33.52;32.30;99989.94;5049700;28;19995;-72
2023/06/03 11:45:37;;;;;;;;;;;;;;;33.50;34.10;99992.03;5051493;28;20003;-71
2023/06/03 11:48:07;;;;;;;;;;;;;;;33.55;33.10;99981.28;5060211;28;19916;-73
2023/06/03 11:50:43;;;;;;;;;;;;;;;33.55;34.07;99989.53;5062284;28;19916;-73
2023/06/03 11:53:08;;;;;;;;;;;;;;;33.24;32.35;99987.94;5040532;28;20063;-73
2023/06/03 11:55:36;;;;;;;;;;;;;;;32.90;34.77;99982.22;5067132;28;20527;-73
2023/06/03 11:58:08;;;;;;;;;;;;;;;32.92;34.10;99977.38;5057101;28;19912;-73
2023/06/03 12:00:34;;;;;;;;;;;;;;;33.27;32.97;99976.53;5057547;28;20030;-73
2023/06/03 12:02:59;;;;;;;;;;;;;;;33.82;33.62;99974.94;5062352;28;19930;-72
2023/06/03 12:05:24;;;;;;;;;;;;;;;33.65;32.22;99979.03;5054536;28;19931;-72
2023/06/03 12:07:53;;;;;;;;;;;;;;;33.86;32.09;99970.72;5058223;28;20011;-71
2023/06/03 12:10:18;;;;;;;;;;;;;;;33.97;32.96;99970.22;5051398;28;20003;-72
2023/06/03 12:12:50;;;;;;;;;;;;;;;34.32;33.61;99967.28;5056334;28;20031;-68
2023/06/03 12:15:16;;;;;;;;;;;;;;;34.15;32.63;99973.34;5058361;28;19916;-78
2023/06/03 12:17:41;;;;;;;;;;;;;;;33.81;32.64;99967.69;5060715;28;20771;-80
2023/06/03 12:20:07;;;;;;;;;;;;;;;33.58;32.50;99958.78;5058140;28;20232;-78
2023/06/03 12:22:32;;;;;;;;;;;;;;;33.28;32.82;99958.91;5058297;28;20002;-77
2023/06/03 12:24:58;;;;;;;;;;;;;;;33.28;33.40;99960.81;5055539;28;19912;-78
2023/06/03 12:27:25;;;;;;;;;;;;;;;33.49;33.06;99965.53;5055106;28;19916;-78
2023/06/03 12:29:55;;;;;;;;;;;;;;;33.10;32.99;99950.22;5060383;28;19974;-77
2023/06/03 12:32:20;;;;;;;;;;;;;;;33.48;33.58;99958.31;5045803;28;19921;-78
2023/06/03 12:34:46;;;;;;;;;;;;;;;33.72;32.93;99952.34;5059029;28;19916;-77
2023/06/03 12:37:15;;;;;;;;;;;;;;;33.55;32.24;99945.41;5056143;28;19932;-77
2023/06/03 12:39:42;;;;;;;;;;;;;;;34.06;32.59;99945.00;5062072;28;19921;-77
2023/06/03 12:42:08;;;;;;;;;;;;;;;34.04;32.05;99949.00;5038628;28;19916;-78